Time;durP1;ratioP1;P1;durP2;ratioP2;P2;SDS_P1;SDS_P2;PMS_P1;PMS_P2;Temp;Humidity;BMP_temperature;BMP_pressure;BME280_temperature;BME280_humidity;BME280_pressure;Samples;Min_cycle;Max_cycle;Signal;HPM_P1;HPM_P2
2022/03/18 00:00:00;;;;;;;38.03;24.43;;;7.60;99.90;;;;;;4993301;28;20444;-72
2022/03/18 00:02:27;;;;;;;36.40;23.90;;;7.60;99.90;;;;;;4993236;28;20336;-69
2022/03/18 00:04:54;;;;;;;38.47;22.33;;;7.60;99.90;;;;;;4993697;28;20422;-72
2022/03/18 00:07:21;;;;;;;33.70;21.67;;;7.60;99.90;;;;;;4993412;28;20423;-72
2022/03/18 00:09:49;;;;;;;34.63;22.90;;;7.60;99.90;;;;;;4992784;28;20501;-72
2022/03/18 00:12:15;;;;;;;35.43;23.87;;;7.50;99.90;;;;;;4991713;28;20440;-73
2022/03/18 00:14:42;;;;;;;33.10;21.10;;;7.50;99.90;;;;;;4992231;28;20950;-72
2022/03/18 00:17:09;;;;;;;36.87;23.00;;;7.50;99.90;;;;;;4991326;28;20766;-72
2022/03/18 00:19:38;;;;;;;35.67;22.70;;;7.60;99.90;;;;;;4992311;28;20415;-72
2022/03/18 00:22:06;;;;;;;33.57;22.80;;;7.50;99.90;;;;;;4992686;28;20442;-72
2022/03/18 00:24:32;;;;;;;40.53;22.00;;;7.60;99.90;;;;;;4992306;28;20416;-72
2022/03/18 00:26:59;;;;;;;34.27;21.43;;;7.60;99.90;;;;;;4992508;28;20412;-72
2022/03/18 00:29:25;;;;;;;32.23;21.97;;;7.60;99.90;;;;;;4992499;28;20451;-72
2022/03/18 00:31:52;;;;;;;42.60;23.70;;;7.50;99.90;;;;;;4992249;28;20520;-72
2022/03/18 00:34:17;;;;;;;31.60;21.50;;;7.50;99.90;;;;;;4992032;28;20821;-71
2022/03/18 00:36:43;;;;;;;36.93;21.80;;;7.50;99.90;;;;;;4992649;28;20504;-72
2022/03/18 00:39:09;;;;;;;34.77;20.53;;;7.50;99.90;;;;;;4992152;28;20219;-72
2022/03/18 00:41:34;;;;;;;31.87;20.23;;;7.50;99.90;;;;;;4992538;28;20211;-72
2022/03/18 00:44:00;;;;;;;33.50;21.10;;;7.50;99.90;;;;;;4992119;28;20633;-72
2022/03/18 00:46:25;;;;;;;35.93;22.27;;;7.40;99.90;;;;;;4992341;28;20688;-72
2022/03/18 00:54:20;;;;;;;30.60;20.70;;;7.50;99.90;;;;;;4992053;28;20474;-72
2022/03/18 00:56:46;;;;;;;26.37;18.27;;;7.50;99.90;;;;;;4992182;28;20417;-72
2022/03/18 00:59:12;;;;;;;26.17;19.07;;;7.50;99.90;;;;;;4991945;28;20412;-72
2022/03/18 01:01:38;;;;;;;24.90;17.97;;;7.50;99.90;;;;;;4992050;28;20201;-72
2022/03/18 01:04:04;;;;;;;26.10;18.47;;;7.50;99.90;;;;;;4991871;28;20177;-72
2022/03/18 01:06:31;;;;;;;28.50;19.70;;;7.40;99.90;;;;;;4991983;28;20758;-72
2022/03/18 01:08:56;;;;;;;26.70;19.17;;;7.40;99.90;;;;;;4991972;28;20869;-72
2022/03/18 01:11:22;;;;;;;27.40;18.43;;;7.50;99.90;;;;;;4992133;28;20468;-71
2022/03/18 01:13:48;;;;;;;27.83;18.07;;;7.50;99.90;;;;;;4991813;28;20180;-72
2022/03/18 01:16:13;;;;;;;24.17;15.40;;;7.40;99.90;;;;;;4992031;28;20173;-72
2022/03/18 01:18:39;;;;;;;28.97;18.20;;;7.40;99.90;;;;;;4991960;28;20214;-72
2022/03/18 01:21:05;;;;;;;24.90;17.07;;;7.40;99.90;;;;;;4992345;28;20224;-72
2022/03/18 01:23:31;;;;;;;26.37;17.20;;;7.50;99.90;;;;;;4991711;28;20533;-72
2022/03/18 01:25:56;;;;;;;26.53;17.23;;;7.50;99.90;;;;;;4991980;28;20211;-72
2022/03/18 01:28:23;;;;;;;26.27;17.23;;;7.50;99.90;;;;;;4995762;28;20209;-72
2022/03/18 01:30:48;;;;;;;27.30;17.10;;;7.50;99.90;;;;;;4995619;28;20209;-73
2022/03/18 01:33:14;;;;;;;32.07;17.20;;;7.50;99.90;;;;;;4996522;28;20443;-71
2022/03/18 01:35:40;;;;;;;23.83;16.90;;;7.50;99.90;;;;;;4996338;28;20271;-73
2022/03/18 01:38:05;;;;;;;30.17;17.83;;;7.50;99.90;;;;;;4997210;28;20229;-70
2022/03/18 01:40:31;;;;;;;24.47;16.40;;;7.50;99.90;;;;;;4996856;28;20182;-72
2022/03/18 01:42:57;;;;;;;23.47;16.80;;;7.50;99.90;;;;;;4996117;28;20549;-72
2022/03/18 01:45:24;;;;;;;24.33;15.73;;;7.50;99.90;;;;;;4996064;28;20187;-70
2022/03/18 01:47:49;;;;;;;25.30;16.77;;;7.50;99.90;;;;;;4995188;28;20189;-72
2022/03/18 01:50:16;;;;;;;24.90;16.57;;;7.50;99.90;;;;;;4995087;28;20806;-72
2022/03/18 01:52:43;;;;;;;22.20;15.70;;;7.50;99.90;;;;;;4996311;28;20178;-72
2022/03/18 01:55:10;;;;;;;27.53;17.20;;;7.50;99.90;;;;;;4995333;28;20420;-69
2022/03/18 01:57:36;;;;;;;20.37;15.50;;;7.50;99.90;;;;;;4996418;28;20440;-71
2022/03/18 02:00:03;;;;;;;24.50;16.07;;;7.40;99.90;;;;;;4995930;28;20426;-72
2022/03/18 03:31:04;;;;;;;18.97;12.73;;;7.20;99.90;;;;;;5939101;22;20483;-73
2022/03/18 03:33:30;;;;;;;18.00;13.03;;;7.30;99.90;;;;;;5010961;28;20425;-73
2022/03/18 03:35:56;;;;;;;17.90;13.13;;;7.30;99.90;;;;;;5012252;28;20459;-76
2022/03/18 03:38:23;;;;;;;20.83;12.70;;;7.20;99.90;;;;;;5011465;28;20421;-74
2022/03/18 03:40:49;;;;;;;21.17;12.20;;;7.20;99.90;;;;;;5007329;28;20733;-75
2022/03/18 03:43:15;;;;;;;22.50;12.33;;;7.20;99.90;;;;;;4972635;28;20498;-76
2022/03/18 03:45:40;;;;;;;15.93;12.17;;;7.20;99.90;;;;;;4972881;28;20466;-76
2022/03/18 03:48:07;;;;;;;18.60;12.40;;;7.20;99.90;;;;;;4972925;28;20188;-76
2022/03/18 03:50:33;;;;;;;23.40;12.50;;;7.20;99.90;;;;;;4971569;28;20239;-76
2022/03/18 03:52:59;;;;;;;20.97;13.07;;;7.20;99.90;;;;;;4972514;28;20505;-76
2022/03/18 03:55:24;;;;;;;15.33;11.70;;;7.20;99.90;;;;;;4972617;28;20872;-76
2022/03/18 03:57:50;;;;;;;18.10;12.77;;;7.20;99.90;;;;;;4972601;28;20179;-75
2022/03/18 04:00:16;;;;;;;23.50;11.73;;;7.20;99.90;;;;;;4971875;28;20236;-76
2022/03/18 04:02:43;;;;;;;20.07;12.33;;;7.20;99.90;;;;;;4972090;28;20199;-78
2022/03/18 04:05:09;;;;;;;22.07;12.50;;;7.20;99.90;;;;;;4972196;28;20789;-74
2022/03/18 04:07:40;;;;;;;16.97;12.33;;;7.20;99.90;;;;;;4971993;28;20413;-76
2022/03/18 04:10:08;;;;;;;20.20;14.13;;;7.10;99.90;;;;;;4972167;28;20926;-76
2022/03/18 04:12:34;;;;;;;18.33;11.97;;;7.10;99.90;;;;;;4972406;28;20856;-76
2022/03/18 04:15:00;;;;;;;20.50;13.10;;;7.10;99.90;;;;;;4971221;28;20416;-76
2022/03/18 04:17:28;;;;;;;17.97;12.47;;;7.10;99.90;;;;;;4972244;28;20545;-76
2022/03/18 04:19:54;;;;;;;19.30;12.40;;;7.20;99.90;;;;;;4972317;28;20805;-77
2022/03/18 04:22:21;;;;;;;18.17;12.40;;;7.20;99.90;;;;;;4972251;28;20435;-76
2022/03/18 04:24:46;;;;;;;20.67;13.20;;;7.20;99.90;;;;;;4971759;28;20709;-75
2022/03/18 04:27:12;;;;;;;19.43;11.83;;;7.20;99.90;;;;;;4971541;28;20558;-75
2022/03/18 04:29:37;;;;;;;15.80;11.77;;;7.20;99.90;;;;;;4972163;28;20294;-75
2022/03/18 04:32:03;;;;;;;16.03;11.63;;;7.20;99.90;;;;;;4971527;28;20216;-76
2022/03/18 04:34:29;;;;;;;19.70;13.03;;;7.20;99.90;;;;;;4971618;28;20188;-72
2022/03/18 04:36:54;;;;;;;19.33;12.50;;;7.20;99.90;;;;;;4972057;28;20246;-76
2022/03/18 04:39:20;;;;;;;18.30;12.10;;;7.20;99.90;;;;;;4971714;28;20186;-76
2022/03/18 04:41:45;;;;;;;20.43;12.30;;;7.10;99.90;;;;;;4971928;28;20224;-76
2022/03/18 04:44:11;;;;;;;16.30;12.30;;;7.10;99.90;;;;;;4970938;28;20243;-76
2022/03/18 04:46:36;;;;;;;20.23;12.47;;;7.10;99.90;;;;;;4971704;28;20597;-75
2022/03/18 04:49:02;;;;;;;19.83;13.13;;;7.10;99.90;;;;;;4971643;28;20196;-77
2022/03/18 04:51:27;;;;;;;21.53;13.57;;;7.10;99.90;;;;;;4972000;28;20228;-75
2022/03/18 04:53:53;;;;;;;18.17;11.73;;;7.10;99.90;;;;;;4969837;28;20246;-76
2022/03/18 04:59:03;;;;;;;21.23;13.27;;;7.10;99.90;;;;;;4971662;28;20208;-76
2022/03/18 05:01:29;;;;;;;15.40;11.37;;;7.10;99.90;;;;;;4970468;28;20444;-73
2022/03/18 05:03:55;;;;;;;20.10;12.83;;;7.10;99.90;;;;;;4971386;28;20177;-76
2022/03/18 05:06:20;;;;;;;15.73;11.43;;;7.10;99.90;;;;;;4971396;28;20235;-76
2022/03/18 05:08:46;;;;;;;20.03;13.27;;;7.10;99.90;;;;;;4971686;28;20212;-76
2022/03/18 05:11:14;;;;;;;18.90;12.67;;;7.10;99.90;;;;;;4971472;28;20464;-76
2022/03/18 05:13:40;;;;;;;21.00;12.57;;;7.10;99.90;;;;;;4970487;28;20211;-76
2022/03/18 05:16:06;;;;;;;16.33;11.40;;;7.10;99.90;;;;;;4968257;28;20431;-75
2022/03/18 05:18:31;;;;;;;17.73;12.30;;;7.10;99.90;;;;;;4971740;28;20654;-76
2022/03/18 05:20:57;;;;;;;18.53;12.10;;;7.10;99.90;;;;;;4971319;28;20199;-76
2022/03/18 05:23:23;;;;;;;22.57;13.13;;;7.10;99.90;;;;;;4970746;28;20180;-73
2022/03/18 05:25:48;;;;;;;17.23;11.43;;;7.10;99.90;;;;;;4971413;28;20259;-75
2022/03/18 05:28:14;;;;;;;21.13;13.97;;;7.00;99.90;;;;;;4971620;28;20184;-74
2022/03/18 05:30:40;;;;;;;24.90;14.10;;;7.00;99.90;;;;;;4971301;28;20211;-77
2022/03/18 05:33:06;;;;;;;25.77;12.73;;;7.10;99.90;;;;;;4970441;28;20203;-77
2022/03/18 05:35:32;;;;;;;21.23;13.60;;;7.10;99.90;;;;;;4971324;28;20420;-77
2022/03/18 05:37:57;;;;;;;18.20;12.70;;;7.10;99.90;;;;;;4971359;28;20181;-77
2022/03/18 05:40:24;;;;;;;18.60;13.20;;;7.20;99.90;;;;;;4971165;28;20657;-75
2022/03/18 05:42:49;;;;;;;17.50;13.10;;;7.20;99.90;;;;;;4971668;28;20207;-76
2022/03/18 05:45:15;;;;;;;22.77;13.67;;;7.20;99.90;;;;;;4970725;28;20426;-76
2022/03/18 05:47:41;;;;;;;25.67;14.23;;;7.20;99.90;;;;;;4971654;28;20199;-77
2022/03/18 05:50:07;;;;;;;19.73;13.13;;;7.20;99.90;;;;;;4971057;28;20377;-75
2022/03/18 05:52:36;;;;;;;24.43;13.47;;;7.20;99.90;;;;;;4971445;28;20197;-76
2022/03/18 05:55:02;;;;;;;23.23;14.63;;;7.20;99.90;;;;;;4970661;28;20415;-74
2022/03/18 05:57:28;;;;;;;20.87;12.87;;;7.20;99.90;;;;;;4971349;28;20415;-76
2022/03/18 05:59:56;;;;;;;22.43;14.57;;;7.20;99.90;;;;;;4970708;28;20901;-75
2022/03/18 06:02:22;;;;;;;25.50;14.87;;;7.10;99.90;;;;;;4971020;28;20486;-74
2022/03/18 06:04:47;;;;;;;21.10;14.07;;;7.20;99.90;;;;;;4970654;28;20964;-76
2022/03/18 06:07:14;;;;;;;21.73;13.73;;;7.10;99.90;;;;;;4970333;28;20482;-76
2022/03/18 06:12:24;;;;;;;19.77;13.00;;;7.10;99.90;;;;;;4971657;28;20474;-75
2022/03/18 06:14:51;;;;;;;23.20;13.83;;;7.10;99.90;;;;;;4974249;28;20880;-77
2022/03/18 06:17:16;;;;;;;26.13;15.03;;;7.20;99.90;;;;;;4974131;28;20561;-77
2022/03/18 06:19:42;;;;;;;23.90;15.13;;;7.20;99.90;;;;;;4974361;28;20425;-74
2022/03/18 06:22:08;;;;;;;22.97;14.50;;;7.20;99.90;;;;;;4974444;28;20198;-77
2022/03/18 06:24:34;;;;;;;26.23;13.67;;;7.20;99.90;;;;;;4974262;28;20177;-77
2022/03/18 06:27:01;;;;;;;23.10;14.93;;;7.20;99.90;;;;;;4974265;28;20407;-77
2022/03/18 06:29:30;;;;;;;21.20;14.50;;;7.20;99.90;;;;;;4974016;28;20889;-76
2022/03/18 06:31:56;;;;;;;24.73;14.47;;;7.20;99.90;;;;;;4974181;28;20485;-77
2022/03/18 06:34:23;;;;;;;27.60;15.60;;;7.10;99.90;;;;;;4973578;28;20502;-75
2022/03/18 06:36:50;;;;;;;24.73;13.70;;;7.10;99.90;;;;;;4974406;28;20764;-76
2022/03/18 06:39:16;;;;;;;26.00;14.70;;;7.10;99.90;;;;;;4973569;28;20464;-76
2022/03/18 06:41:41;;;;;;;21.47;13.63;;;7.20;99.90;;;;;;4974060;28;20444;-74
2022/03/18 06:44:08;;;;;;;24.93;15.03;;;7.20;99.90;;;;;;4974332;28;20183;-77
2022/03/18 06:46:34;;;;;;;21.10;13.57;;;7.30;99.90;;;;;;4974374;28;20176;-77
2022/03/18 06:49:00;;;;;;;25.47;16.00;;;7.30;99.90;;;;;;4973610;28;20431;-76
2022/03/18 06:51:26;;;;;;;23.30;16.73;;;7.30;99.90;;;;;;4973561;28;20851;-77
2022/03/18 06:53:51;;;;;;;27.27;16.10;;;7.40;99.90;;;;;;4972523;28;20187;-78
2022/03/18 06:56:17;;;;;;;27.77;16.30;;;7.30;99.90;;;;;;4973566;28;20266;-76
2022/03/18 06:58:43;;;;;;;24.87;16.30;;;7.40;99.90;;;;;;4973740;28;20176;-74
2022/03/18 07:01:09;;;;;;;25.90;16.10;;;7.40;99.90;;;;;;4973864;28;20200;-77
2022/03/18 07:03:35;;;;;;;32.60;17.33;;;7.40;99.90;;;;;;4972570;28;20815;-78
2022/03/18 07:06:00;;;;;;;28.80;17.07;;;7.40;99.90;;;;;;4973684;28;20643;-77
2022/03/18 07:08:26;;;;;;;28.63;17.30;;;7.50;99.90;;;;;;4975563;28;20177;-76
2022/03/18 07:10:52;;;;;;;23.93;16.73;;;7.50;99.90;;;;;;4973453;28;20215;-77
2022/03/18 07:13:17;;;;;;;28.03;17.33;;;7.50;99.90;;;;;;4973094;28;20184;-77
2022/03/18 07:15:43;;;;;;;33.10;18.50;;;7.60;99.90;;;;;;4973187;28;20216;-77
2022/03/18 07:18:09;;;;;;;31.50;20.70;;;7.60;99.90;;;;;;4974020;28;20422;-76
2022/03/18 07:20:37;;;;;;;32.20;21.50;;;7.60;99.90;;;;;;4974099;28;20176;-75
2022/03/18 07:23:11;;;;;;;33.50;20.07;;;7.70;99.90;;;;;;4972808;28;20219;-75
2022/03/18 07:25:38;;;;;;;33.60;20.97;;;7.70;99.90;;;;;;4972814;28;20425;-77
2022/03/18 07:28:08;;;;;;;32.60;20.10;;;7.70;99.90;;;;;;4973210;28;20761;-77
2022/03/18 07:30:34;;;;;;;37.50;20.97;;;7.80;99.90;;;;;;4971940;28;20517;-76
2022/03/18 07:32:59;;;;;;;32.40;20.53;;;7.80;99.90;;;;;;4972426;28;20936;-77
2022/03/18 07:35:25;;;;;;;37.57;22.03;;;7.80;99.90;;;;;;4973283;28;20408;-77
2022/03/18 07:37:51;;;;;;;34.20;22.00;;;7.90;99.90;;;;;;4972735;28;20651;-77
2022/03/18 07:40:18;;;;;;;41.13;22.03;;;7.90;99.90;;;;;;4972952;28;20616;-77
2022/03/18 07:42:49;;;;;;;38.27;23.30;;;8.00;99.90;;;;;;4972849;28;20224;-73
2022/03/18 07:45:27;;;;;;;42.50;25.00;;;7.90;99.90;;;;;;4972688;28;20427;-77
2022/03/18 07:47:57;;;;;;;39.40;25.83;;;8.00;99.90;;;;;;4973095;28;20471;-78
2022/03/18 07:50:26;;;;;;;44.17;26.50;;;8.00;99.90;;;;;;4972497;28;20861;-76
2022/03/18 07:52:54;;;;;;;40.73;25.90;;;8.10;99.90;;;;;;4970807;28;20436;-76
2022/03/18 07:55:22;;;;;;;39.10;23.30;;;8.10;99.90;;;;;;4973060;28;20561;-77
2022/03/18 07:57:48;;;;;;;41.37;26.33;;;8.20;99.90;;;;;;4972987;28;20810;-77
2022/03/18 08:00:15;;;;;;;44.43;25.53;;;8.30;99.90;;;;;;4972546;28;20428;-76
2022/03/18 08:02:43;;;;;;;47.43;27.10;;;8.30;99.90;;;;;;4971227;28;21020;-76
2022/03/18 08:05:09;;;;;;;43.47;24.37;;;8.30;99.90;;;;;;4972291;28;20913;-77
2022/03/18 08:07:36;;;;;;;44.10;25.90;;;8.40;99.90;;;;;;4972869;28;20427;-77
2022/03/18 08:10:02;;;;;;;43.73;26.93;;;8.30;99.90;;;;;;4972299;28;20504;-75
2022/03/18 08:12:28;;;;;;;41.97;25.80;;;8.30;99.90;;;;;;4972699;28;20476;-77
2022/03/18 08:15:04;;;;;;;46.07;27.50;;;8.30;99.90;;;;;;4971975;28;20830;-76
2022/03/18 08:17:30;;;;;;;44.40;26.30;;;8.30;99.90;;;;;;4972577;28;20180;-75
2022/03/18 08:19:56;;;;;;;46.67;26.80;;;8.40;99.90;;;;;;4972203;28;20423;-75
2022/03/18 08:22:22;;;;;;;51.30;28.37;;;8.30;99.90;;;;;;4972377;28;20528;-74
2022/03/18 08:24:49;;;;;;;47.03;27.20;;;8.30;99.90;;;;;;4971539;28;20180;-76
2022/03/18 08:27:15;;;;;;;47.93;27.50;;;8.40;99.90;;;;;;4972320;28;20417;-77
2022/03/18 08:29:40;;;;;;;45.30;26.60;;;8.50;99.90;;;;;;4972376;28;20462;-76
2022/03/18 08:32:07;;;;;;;49.80;26.13;;;8.60;99.90;;;;;;4971974;28;20455;-75
2022/03/18 08:34:33;;;;;;;48.27;28.30;;;8.60;99.90;;;;;;4971224;28;20664;-76
2022/03/18 08:36:58;;;;;;;41.27;25.30;;;8.80;99.90;;;;;;4971792;28;20437;-75
2022/03/18 08:39:24;;;;;;;44.80;27.17;;;8.90;99.90;;;;;;4971877;28;20194;-76
2022/03/18 08:41:50;;;;;;;45.47;26.57;;;9.00;99.90;;;;;;4971870;28;20603;-76
2022/03/18 08:44:19;;;;;;;43.23;25.80;;;9.20;99.90;;;;;;4971251;28;20552;-76
2022/03/18 08:46:49;;;;;;;40.50;26.50;;;9.20;99.90;;;;;;4971271;28;20433;-74
2022/03/18 08:49:14;;;;;;;39.80;25.43;;;9.30;99.90;;;;;;4971665;28;20981;-76
2022/03/18 08:51:40;;;;;;;39.47;25.07;;;9.50;99.90;;;;;;4971864;28;20450;-76
2022/03/18 08:54:06;;;;;;;40.07;24.50;;;9.60;99.90;;;;;;4970788;28;20644;-75
2022/03/18 08:56:32;;;;;;;38.57;24.30;;;9.60;99.90;;;;;;4971868;28;20595;-75
2022/03/18 08:58:58;;;;;;;40.00;24.53;;;9.60;99.90;;;;;;4970266;28;20191;-76
2022/03/18 09:01:25;;;;;;;40.47;25.57;;;9.70;99.90;;;;;;4971060;28;20458;-76
2022/03/18 09:03:51;;;;;;;36.37;23.13;;;9.90;99.90;;;;;;4971192;28;20259;-74
2022/03/18 09:06:17;;;;;;;36.97;24.57;;;9.80;99.90;;;;;;4971599;28;20430;-76
2022/03/18 09:08:44;;;;;;;36.50;23.13;;;10.00;99.90;;;;;;4971567;28;20463;-74
2022/03/18 09:11:10;;;;;;;38.37;22.93;;;10.10;99.90;;;;;;4971163;28;20568;-76
2022/03/18 09:13:35;;;;;;;36.33;22.40;;;10.10;99.90;;;;;;4971482;28;20416;-76
2022/03/18 09:16:02;;;;;;;33.80;23.00;;;10.40;99.90;;;;;;4971207;28;20173;-76
2022/03/18 09:18:28;;;;;;;34.13;20.80;;;10.60;99.90;;;;;;4971666;28;20230;-77
2022/03/18 09:20:54;;;;;;;36.60;24.30;;;10.80;99.90;;;;;;4971344;28;20433;-76
2022/03/18 09:23:19;;;;;;;35.23;21.27;;;11.00;99.90;;;;;;4970248;28;20423;-74
2022/03/18 09:25:45;;;;;;;37.03;22.93;;;10.90;99.90;;;;;;4971300;28;20183;-76
2022/03/18 09:28:10;;;;;;;35.07;21.20;;;11.10;99.90;;;;;;4971184;28;20179;-75
2022/03/18 09:30:36;;;;;;;35.53;21.37;;;11.30;99.90;;;;;;4971225;28;20214;-76
2022/03/18 09:33:02;;;;;;;36.90;22.90;;;11.20;99.90;;;;;;4970455;28;20204;-74
2022/03/18 09:35:28;;;;;;;38.43;22.10;;;11.20;99.90;;;;;;4971579;28;20568;-76
2022/03/18 09:37:53;;;;;;;33.40;20.97;;;11.30;99.90;;;;;;4970788;28;20182;-76
2022/03/18 09:40:19;;;;;;;31.93;21.63;;;11.40;99.90;;;;;;4971067;28;20418;-76
2022/03/18 09:43:00;;;;;;;30.17;20.20;;;11.50;99.90;;;;;;4970731;28;20202;-74
2022/03/18 09:45:30;;;;;;;37.13;21.47;;;11.40;99.90;;;;;;4970912;28;20189;-75
2022/03/18 09:48:00;;;;;;;33.40;21.70;;;11.60;99.90;;;;;;4972307;28;20501;-76
2022/03/18 09:50:27;;;;;;;34.93;23.17;;;11.70;99.90;;;;;;4974678;28;20476;-76
2022/03/18 09:52:53;;;;;;;36.90;22.53;;;11.60;99.90;;;;;;4974356;28;20449;-76
2022/03/18 09:55:19;;;;;;;34.20;21.87;;;11.50;99.90;;;;;;4974824;28;20415;-76
2022/03/18 09:57:45;;;;;;;32.10;21.63;;;11.40;99.90;;;;;;4974178;28;20178;-75
2022/03/18 10:00:11;;;;;;;38.37;21.77;;;11.50;99.90;;;;;;4974595;28;20183;-76
2022/03/18 10:02:37;;;;;;;34.70;21.80;;;12.00;99.90;;;;;;4974832;28;20247;-75
2022/03/18 10:05:08;;;;;;;43.27;23.10;;;12.00;99.90;;;;;;4973478;28;20500;-73
2022/03/18 10:07:33;;;;;;;30.80;22.33;;;12.20;99.90;;;;;;4974748;28;20738;-76
2022/03/18 10:10:04;;;;;;;38.03;22.70;;;12.50;99.90;;;;;;4974386;28;20494;-74
2022/03/18 10:12:34;;;;;;;34.30;21.17;;;13.00;99.90;;;;;;4974280;28;20241;-76
2022/03/18 10:15:13;;;;;;;35.77;23.20;;;13.20;99.90;;;;;;4973988;28;20407;-76
2022/03/18 10:17:42;;;;;;;39.80;21.83;;;13.20;99.90;;;;;;4974000;28;20407;-76
2022/03/18 10:20:22;;;;;;;41.00;24.03;;;12.60;99.90;;;;;;4974150;28;20410;-75
2022/03/18 10:22:48;;;;;;;34.93;23.50;;;12.40;99.90;;;;;;4973814;28;20434;-75
2022/03/18 10:25:46;;;;;;;34.73;21.60;;;12.20;99.90;;;;;;4974085;28;20418;-76
2022/03/18 10:28:11;;;;;;;40.27;23.17;;;11.90;99.90;;;;;;4974137;28;20176;-74
2022/03/18 10:30:37;;;;;;;39.30;23.40;;;12.10;99.90;;;;;;4973646;28;20478;-75
2022/03/18 10:33:05;;;;;;;43.77;26.00;;;11.90;99.90;;;;;;4973138;28;20199;-74
2022/03/18 10:38:35;;;;;;;36.87;23.60;;;12.20;99.90;;;;;;4895548;29;20518;-75
2022/03/18 10:41:23;;;;;;;40.50;26.20;;;12.20;99.90;;;;;;4957581;28;20450;-75
2022/03/18 10:43:55;;;;;;;41.00;25.67;;;12.30;99.90;;;;;;4973055;28;20446;-75
2022/03/18 10:46:21;;;;;;;34.80;23.57;;;12.40;99.90;;;;;;4973778;28;20525;-75
2022/03/18 10:49:07;;;;;;;37.53;23.47;;;12.50;99.90;;;;;;4974025;28;20829;-76
2022/03/18 10:51:34;;;;;;;40.00;25.40;;;12.20;99.90;;;;;;4973459;28;20479;-78
2022/03/18 10:54:00;;;;;;;38.13;24.33;;;12.30;99.90;;;;;;4972794;28;20426;-76
2022/03/18 10:56:26;;;;;;;38.30;23.60;;;12.50;99.90;;;;;;4973447;28;20795;-76
2022/03/18 10:58:51;;;;;;;37.23;25.40;;;12.40;99.90;;;;;;4972367;28;20187;-75
2022/03/18 11:01:19;;;;;;;39.60;24.27;;;12.60;99.90;;;;;;4973281;28;20427;-77
2022/03/18 11:03:45;;;;;;;44.00;25.97;;;12.70;99.90;;;;;;4973160;28;20260;-76
2022/03/18 11:06:13;;;;;;;43.20;24.70;;;12.70;99.90;;;;;;4973480;28;20870;-75
2022/03/18 11:08:44;;;;;;;41.00;24.20;;;12.70;99.90;;;;;;4973611;28;20426;-76
2022/03/18 11:11:15;;;;;;;37.43;23.43;;;12.70;99.90;;;;;;4972707;28;20463;-75
2022/03/18 11:14:03;;;;;;;40.43;24.23;;;13.10;99.90;;;;;;4973125;28;20411;-77
2022/03/18 11:16:35;;;;;;;34.70;23.43;;;13.50;99.90;;;;;;4973675;28;20438;-76
2022/03/18 11:19:06;;;;;;;37.23;23.10;;;13.60;99.90;;;;;;4972338;28;20943;-76
2022/03/18 11:21:50;;;;;;;47.23;23.93;;;13.30;99.90;;;;;;4973546;28;20431;-76
2022/03/18 11:24:22;;;;;;;37.00;23.80;;;13.00;99.90;;;;;;4972599;28;20489;-77
2022/03/18 11:26:50;;;;;;;40.20;26.27;;;12.60;99.90;;;;;;4972750;28;20958;-77
2022/03/18 11:29:26;;;;;;;34.80;22.73;;;12.40;99.90;;;;;;4974102;28;20536;-77
2022/03/18 11:32:10;;;;;;;37.10;23.77;;;12.40;99.90;;;;;;4973975;28;20446;-75
2022/03/18 11:35:01;;;;;;;38.10;23.60;;;12.20;99.90;;;;;;4972701;28;20421;-74
2022/03/18 11:37:28;;;;;;;36.77;24.50;;;12.20;99.90;;;;;;4964197;28;20419;-76
2022/03/18 11:40:19;;;;;;;42.63;26.50;;;12.10;99.90;;;;;;4972697;28;20419;-75
2022/03/18 11:42:45;;;;;;;32.40;21.60;;;12.40;99.90;;;;;;4972573;28;20779;-75
2022/03/18 11:45:30;;;;;;;43.77;25.07;;;12.30;99.90;;;;;;4971677;28;20421;-75
2022/03/18 11:47:55;;;;;;;39.30;26.07;;;12.20;99.90;;;;;;4973244;28;20411;-75
2022/03/18 11:50:40;;;;;;;36.40;25.00;;;12.10;99.90;;;;;;4972567;28;20485;-76
2022/03/18 11:53:10;;;;;;;36.93;23.43;;;12.10;99.90;;;;;;4972176;28;20619;-77
2022/03/18 11:55:36;;;;;;;40.63;25.93;;;12.20;99.90;;;;;;4972543;28;20477;-77
2022/03/18 11:58:21;;;;;;;36.83;23.97;;;12.30;99.90;;;;;;4972466;28;20931;-75
2022/03/18 12:00:47;;;;;;;38.33;24.63;;;12.30;99.90;;;;;;4971932;28;20318;-77
2022/03/18 12:03:21;;;;;;;37.27;25.47;;;12.30;99.90;;;;;;4972036;28;20422;-76
2022/03/18 12:05:58;;;;;;;36.60;24.13;;;12.20;99.90;;;;;;4972469;28;20550;-77
2022/03/18 12:08:49;;;;;;;40.57;25.83;;;12.10;99.90;;;;;;4972451;28;20468;-75
2022/03/18 12:11:31;;;;;;;37.50;26.33;;;12.10;99.90;;;;;;4971531;28;20469;-77
2022/03/18 12:13:57;;;;;;;40.53;25.17;;;12.10;99.90;;;;;;4971987;28;20789;-75
2022/03/18 12:16:23;;;;;;;35.67;24.90;;;12.00;99.90;;;;;;4972309;28;20774;-74
2022/03/18 12:18:57;;;;;;;37.43;24.60;;;11.90;99.90;;;;;;4972551;28;20426;-77
2022/03/18 12:21:38;;;;;;;39.90;25.13;;;12.10;99.90;;;;;;4971887;28;20434;-74
2022/03/18 12:24:05;;;;;;;39.80;26.40;;;12.10;99.90;;;;;;4970758;28;20407;-76
2022/03/18 12:26:30;;;;;;;45.03;27.53;;;12.10;99.90;;;;;;4972285;28;20507;-75
2022/03/18 12:28:56;;;;;;;37.40;25.10;;;12.10;99.90;;;;;;4972221;28;20854;-76
2022/03/18 12:31:22;;;;;;;41.27;25.83;;;12.20;99.90;;;;;;4971562;28;20768;-73
2022/03/18 12:33:56;;;;;;;41.93;27.20;;;12.10;99.90;;;;;;4971648;28;20259;-75
2022/03/18 12:36:26;;;;;;;34.23;23.00;;;12.10;99.90;;;;;;4971115;28;20195;-75
2022/03/18 12:39:08;;;;;;;37.90;25.63;;;12.10;99.90;;;;;;4970905;28;20466;-76
2022/03/18 12:41:34;;;;;;;36.27;25.80;;;12.20;99.90;;;;;;4971931;28;20445;-76
2022/03/18 12:44:00;;;;;;;36.90;25.37;;;12.20;99.90;;;;;;4971244;28;20415;-76
2022/03/18 12:46:27;;;;;;;36.53;25.27;;;12.10;99.90;;;;;;4971238;28;20169;-75
2022/03/18 12:48:53;;;;;;;37.50;24.77;;;12.40;99.90;;;;;;4972088;28;20246;-77
2022/03/18 12:51:19;;;;;;;35.60;24.70;;;12.40;99.90;;;;;;4971387;28;20549;-77
2022/03/18 12:53:46;;;;;;;41.97;25.47;;;12.30;99.90;;;;;;4970888;28;20521;-76
2022/03/18 12:56:16;;;;;;;35.10;24.07;;;12.40;99.90;;;;;;4970999;28;20172;-76
2022/03/18 12:58:44;;;;;;;37.17;23.93;;;12.60;99.90;;;;;;4971715;28;20454;-75
2022/03/18 13:01:11;;;;;;;35.07;25.23;;;12.70;99.90;;;;;;4971298;28;20501;-76
2022/03/18 13:03:50;;;;;;;35.70;24.77;;;12.80;99.90;;;;;;4971320;28;20763;-76
2022/03/18 13:06:19;;;;;;;38.73;25.47;;;12.60;99.90;;;;;;4974484;28;20411;-79
2022/03/18 13:09:06;;;;;;;33.40;22.73;;;12.70;99.90;;;;;;4973534;28;20418;-76
2022/03/18 13:11:33;;;;;;;36.07;22.90;;;12.60;99.90;;;;;;4971796;28;20488;-77
2022/03/18 13:13:58;;;;;;;37.87;24.20;;;12.60;99.90;;;;;;4971028;28;20403;-75
2022/03/18 13:16:36;;;;;;;35.63;23.70;;;12.60;99.90;;;;;;4970692;28;20415;-76
2022/03/18 13:19:03;;;;;;;33.57;22.57;;;12.50;99.90;;;;;;4971054;28;20191;-75
2022/03/18 13:21:38;;;;;;;36.87;22.67;;;12.60;99.90;;;;;;4971390;28;20854;-77
2022/03/18 13:24:05;;;;;;;37.73;24.23;;;12.50;99.90;;;;;;4973984;28;20465;-76
2022/03/18 13:26:30;;;;;;;35.20;24.00;;;12.50;99.90;;;;;;4975172;28;20445;-77
2022/03/18 13:28:56;;;;;;;34.53;22.57;;;12.60;99.90;;;;;;4975489;28;20416;-78
2022/03/18 13:34:06;;;;;;;32.30;23.17;;;12.60;99.90;;;;;;4974587;28;20675;-75
2022/03/18 13:36:34;;;;;;;35.37;22.07;;;12.40;99.90;;;;;;4975652;28;20419;-77
2022/03/18 13:39:04;;;;;;;38.00;23.50;;;12.40;99.90;;;;;;4974496;28;20277;-76
2022/03/18 13:41:44;;;;;;;32.70;22.20;;;12.30;99.90;;;;;;4975147;28;20531;-77
2022/03/18 13:44:11;;;;;;;32.30;21.77;;;12.50;99.90;;;;;;4974424;28;20499;-75
2022/03/18 13:46:36;;;;;;;29.77;21.80;;;12.40;99.90;;;;;;4974899;28;20834;-77
2022/03/18 13:49:18;;;;;;;35.10;24.13;;;12.30;99.90;;;;;;4974302;28;20435;-75
2022/03/18 13:51:48;;;;;;;34.20;21.33;;;12.40;99.90;;;;;;4974841;28;20203;-75
2022/03/18 13:54:17;;;;;;;32.93;22.60;;;12.50;99.90;;;;;;4974066;28;20955;-78
2022/03/18 13:56:55;;;;;;;34.33;21.00;;;12.50;99.90;;;;;;4974734;28;20553;-74
2022/03/18 13:59:20;;;;;;;35.33;22.80;;;12.50;99.90;;;;;;4975044;28;20426;-78
2022/03/18 14:02:04;;;;;;;30.90;21.23;;;12.60;99.90;;;;;;4975266;28;20569;-77
2022/03/18 14:04:41;;;;;;;34.63;22.13;;;12.70;99.90;;;;;;4974097;28;20262;-77
2022/03/18 14:07:07;;;;;;;31.47;21.07;;;12.70;99.90;;;;;;4974742;28;20446;-77
2022/03/18 14:09:33;;;;;;;38.80;23.40;;;12.60;99.90;;;;;;4974226;28;20457;-77
2022/03/18 14:12:12;;;;;;;36.40;24.00;;;12.70;99.90;;;;;;4974812;28;20435;-77
2022/03/18 14:14:39;;;;;;;34.03;22.53;;;12.70;99.90;;;;;;4974635;28;20684;-77
2022/03/18 14:17:07;;;;;;;31.47;22.23;;;12.60;99.90;;;;;;4974099;28;20838;-76
2022/03/18 14:19:58;;;;;;;32.47;22.03;;;12.60;99.90;;;;;;4974359;28;20445;-78
2022/03/18 14:22:37;;;;;;;29.93;22.93;;;12.50;99.90;;;;;;4974648;28;20427;-75